Time;durP1;ratioP1;P1;durP2;ratioP2;P2;SDS_P1;SDS_P2;PMS_P1;PMS_P2;Temp;Humidity;BMP_temperature;BMP_pressure;BME280_temperature;BME280_humidity;BME280_pressure;Samples;Min_cycle;Max_cycle;Signal;HPM_P1;HPM_P2
2021/10/09 00:01:08;;;;;;;0.73;0.73;;;;;;;;;;5053896;28;20613;-85
2021/10/09 00:03:35;;;;;;;0.77;0.77;;;;;;;;;;5053491;28;20869;-85
2021/10/09 00:06:03;;;;;;;0.60;0.60;;;;;;;;;;5053396;28;20214;-85
2021/10/09 00:08:32;;;;;;;0.53;0.37;;;;;;;;;;5053353;28;20198;-85
2021/10/09 00:11:00;;;;;;;0.47;0.47;;;;;;;;;;5053461;28;20725;-85
2021/10/09 00:13:27;;;;;;;0.57;0.57;;;;;;;;;;5053653;28;20197;-84
2021/10/09 00:15:54;;;;;;;0.50;0.50;;;;;;;;;;5053820;28;20205;-84
2021/10/09 00:18:22;;;;;;;0.80;0.80;;;;;;;;;;5053230;28;20202;-86
2021/10/09 00:20:49;;;;;;;0.83;0.83;;;;;;;;;;5053181;28;20234;-86
2021/10/09 00:23:16;;;;;;;0.57;0.57;;;;;;;;;;5053465;28;20632;-86
2021/10/09 00:25:45;;;;;;;1.97;0.80;;;;;;;;;;5053137;28;20221;-86
2021/10/09 00:28:13;;;;;;;1.13;0.67;;;;;;;;;;5053354;28;20255;-86
2021/10/09 00:30:40;;;;;;;0.60;0.60;;;;;;;;;;5052987;28;20201;-85
2021/10/09 00:33:07;;;;;;;0.50;0.50;;;;;;;;;;5052813;28;20297;-85
2021/10/09 00:35:34;;;;;;;0.60;0.60;;;;;;;;;;5052896;28;20194;-85
2021/10/09 00:38:01;;;;;;;0.70;0.70;;;;;;;;;;5052685;28;20190;-84
2021/10/09 00:40:28;;;;;;;0.70;0.60;;;;;;;;;;5053164;28;20557;-85
2021/10/09 00:42:57;;;;;;;0.53;0.53;;;;;;;;;;5052099;28;20209;-85
2021/10/09 00:45:24;;;;;;;0.70;0.70;;;;;;;;;;5052887;28;20602;-85
2021/10/09 00:47:52;;;;;;;1.33;0.63;;;;;;;;;;5052478;28;20274;-85
2021/10/09 00:50:19;;;;;;;0.60;0.60;;;;;;;;;;5052483;28;20202;-85
2021/10/09 00:52:47;;;;;;;0.90;0.90;;;;;;;;;;5052317;28;20272;-85
2021/10/09 00:55:15;;;;;;;0.60;0.60;;;;;;;;;;5052505;28;20205;-85
2021/10/09 00:57:44;;;;;;;0.80;0.80;;;;;;;;;;5052625;28;20198;-86
2021/10/09 01:00:14;;;;;;;0.70;0.70;;;;;;;;;;5052496;28;20209;-84
2021/10/09 01:02:41;;;;;;;0.97;0.93;;;;;;;;;;5052518;28;20201;-84
2021/10/09 01:05:10;;;;;;;0.40;0.40;;;;;;;;;;5052837;28;20241;-86
2021/10/09 01:07:37;;;;;;;2.83;0.80;;;;;;;;;;5052138;28;20232;-85
2021/10/09 01:10:06;;;;;;;0.87;0.83;;;;;;;;;;5052246;28;20316;-84
2021/10/09 01:12:33;;;;;;;0.57;0.57;;;;;;;;;;5052489;28;20216;-85
2021/10/09 01:15:00;;;;;;;2.43;0.60;;;;;;;;;;5052201;28;20198;-85
2021/10/09 01:17:29;;;;;;;1.17;0.80;;;;;;;;;;5051881;28;20208;-84
2021/10/09 01:19:56;;;;;;;0.50;0.50;;;;;;;;;;5052512;28;20198;-84
2021/10/09 01:22:25;;;;;;;0.60;0.60;;;;;;;;;;5052222;28;20205;-83
2021/10/09 01:24:52;;;;;;;0.50;0.50;;;;;;;;;;5051844;28;20204;-84
2021/10/09 01:27:19;;;;;;;0.80;0.80;;;;;;;;;;5051573;28;20279;-83
2021/10/09 01:29:47;;;;;;;0.60;0.60;;;;;;;;;;5052213;28;20200;-83
2021/10/09 01:32:14;;;;;;;0.70;0.70;;;;;;;;;;5052146;28;20205;-83
2021/10/09 01:34:41;;;;;;;0.60;0.60;;;;;;;;;;5051890;28;20202;-84
2021/10/09 01:37:08;;;;;;;2.93;0.70;;;;;;;;;;5052003;28;20205;-84
2021/10/09 01:39:42;;;;;;;0.70;0.70;;;;;;;;;;5051805;28;20661;-84
2021/10/09 01:42:09;;;;;;;0.70;0.70;;;;;;;;;;5051783;28;20190;-85
2021/10/09 01:44:36;;;;;;;0.60;0.60;;;;;;;;;;5051931;28;20228;-85
2021/10/09 01:47:04;;;;;;;0.40;0.40;;;;;;;;;;5051881;28;20304;-85
2021/10/09 01:49:32;;;;;;;0.70;0.70;;;;;;;;;;5051731;28;20194;-85
2021/10/09 01:51:59;;;;;;;1.57;0.57;;;;;;;;;;5051683;28;20576;-83
2021/10/09 01:54:26;;;;;;;0.63;0.63;;;;;;;;;;5051524;28;20190;-84
2021/10/09 01:56:55;;;;;;;0.53;0.53;;;;;;;;;;5055257;28;20322;-86
2021/10/09 01:59:22;;;;;;;0.63;0.63;;;;;;;;;;5055920;28;20201;-84
2021/10/09 02:01:49;;;;;;;0.60;0.60;;;;;;;;;;5056069;28;20198;-85
2021/10/09 02:04:16;;;;;;;0.50;0.50;;;;;;;;;;5055390;28;20197;-85
2021/10/09 02:06:43;;;;;;;0.50;0.50;;;;;;;;;;5055550;28;20225;-85
2021/10/09 02:09:15;;;;;;;0.50;0.50;;;;;;;;;;5055834;28;20201;-85
2021/10/09 02:11:45;;;;;;;1.10;0.83;;;;;;;;;;5055537;28;20193;-85
2021/10/09 02:14:19;;;;;;;1.93;0.93;;;;;;;;;;5055411;28;20194;-84
2021/10/09 02:25:12;;;;;;;0.40;0.40;;;;;;;;;;5055498;28;20185;-84
2021/10/09 02:27:39;;;;;;;0.63;0.63;;;;;;;;;;5054972;28;20277;-84
2021/10/09 02:30:09;;;;;;;0.37;0.37;;;;;;;;;;5055189;28;20228;-84
2021/10/09 02:32:36;;;;;;;0.50;0.50;;;;;;;;;;5054870;28;20233;-84
2021/10/09 02:35:04;;;;;;;0.70;0.70;;;;;;;;;;5054894;28;20198;-83
2021/10/09 02:37:31;;;;;;;0.50;0.50;;;;;;;;;;5054411;28;20205;-83
2021/10/09 02:39:58;;;;;;;0.60;0.60;;;;;;;;;;5055119;28;20198;-83
2021/10/09 02:42:26;;;;;;;0.40;0.40;;;;;;;;;;5046356;28;20632;-84
2021/10/09 02:44:53;;;;;;;3.00;0.50;;;;;;;;;;5043988;28;20619;-83
2021/10/09 02:47:21;;;;;;;0.40;0.40;;;;;;;;;;5034540;28;20226;-83
2021/10/09 02:49:48;;;;;;;0.53;0.53;;;;;;;;;;5035069;28;20203;-83
2021/10/09 02:52:15;;;;;;;0.80;0.80;;;;;;;;;;5044675;28;20620;-84
2021/10/09 02:54:43;;;;;;;0.97;0.50;;;;;;;;;;5055068;28;20229;-84
2021/10/09 02:57:10;;;;;;;0.20;0.20;;;;;;;;;;5054791;28;20233;-83
2021/10/09 02:59:37;;;;;;;0.20;0.20;;;;;;;;;;5054685;28;20237;-83
2021/10/09 03:02:04;;;;;;;0.40;0.40;;;;;;;;;;5054371;28;20288;-83
2021/10/09 03:04:33;;;;;;;0.57;0.57;;;;;;;;;;5054425;28;20201;-83
2021/10/09 03:07:00;;;;;;;0.20;0.20;;;;;;;;;;5053371;28;20226;-83
2021/10/09 03:09:27;;;;;;;0.40;0.40;;;;;;;;;;5054915;28;20198;-83
2021/10/09 03:11:54;;;;;;;0.50;0.50;;;;;;;;;;5054401;28;20237;-83
2021/10/09 03:14:23;;;;;;;0.40;0.40;;;;;;;;;;5054776;28;20201;-84
2021/10/09 03:16:51;;;;;;;0.50;0.50;;;;;;;;;;5054075;28;20579;-84
2021/10/09 03:19:18;;;;;;;0.73;0.73;;;;;;;;;;5054401;28;20645;-83
2021/10/09 03:21:46;;;;;;;0.40;0.40;;;;;;;;;;5054455;28;20229;-83
2021/10/09 03:24:13;;;;;;;0.40;0.40;;;;;;;;;;5050544;28;20229;-83
2021/10/09 03:26:41;;;;;;;0.37;0.30;;;;;;;;;;5053449;28;20230;-82
2021/10/09 03:29:08;;;;;;;0.50;0.50;;;;;;;;;;5054248;28;20225;-83
2021/10/09 03:31:35;;;;;;;0.50;0.50;;;;;;;;;;5053928;28;20194;-82
2021/10/09 03:34:02;;;;;;;0.50;0.50;;;;;;;;;;5053571;28;20234;-83
2021/10/09 03:36:29;;;;;;;0.60;0.60;;;;;;;;;;5053662;28;20670;-82
2021/10/09 03:38:58;;;;;;;0.50;0.50;;;;;;;;;;5053545;28;20197;-83
2021/10/09 03:41:26;;;;;;;0.60;0.60;;;;;;;;;;5053846;28;20293;-83
2021/10/09 03:43:55;;;;;;;0.70;0.70;;;;;;;;;;5054656;28;20201;-84
2021/10/09 03:46:26;;;;;;;0.87;0.50;;;;;;;;;;5054401;28;20229;-84
2021/10/09 03:49:03;;;;;;;0.70;0.63;;;;;;;;;;5053206;28;20682;-84
2021/10/09 03:54:16;;;;;;;3.83;2.47;;;;;;;;;;5053121;28;20200;-84
2021/10/09 03:56:43;;;;;;;8.57;7.17;;;;;;;;;;5053165;28;20607;-83
2021/10/09 03:59:10;;;;;;;2.73;2.27;;;;;;;;;;5053527;28;20284;-84
2021/10/09 04:01:38;;;;;;;10.13;7.97;;;;;;;;;;5053636;28;20205;-84
2021/10/09 04:04:05;;;;;;;3.47;2.93;;;;;;;;;;5053639;28;20194;-84
2021/10/09 04:06:32;;;;;;;5.90;4.80;;;;;;;;;;5052937;28;20279;-84
2021/10/09 04:09:00;;;;;;;14.10;9.70;;;;;;;;;;5052997;28;20193;-83
2021/10/09 04:11:28;;;;;;;4.27;3.87;;;;;;;;;;5053295;28;20565;-84
2021/10/09 04:13:55;;;;;;;5.63;5.07;;;;;;;;;;5052987;28;20194;-83
2021/10/09 04:16:23;;;;;;;11.37;10.27;;;;;;;;;;5053085;28;20273;-84
2021/10/09 04:18:50;;;;;;;3.03;2.80;;;;;;;;;;5052027;28;20194;-84
2021/10/09 04:21:17;;;;;;;3.17;2.97;;;;;;;;;;5050957;28;20206;-84
2021/10/09 04:23:44;;;;;;;2.50;2.30;;;;;;;;;;5051843;28;20658;-84
2021/10/09 04:26:11;;;;;;;5.40;4.90;;;;;;;;;;5053028;28;20667;-84
2021/10/09 04:28:40;;;;;;;4.23;3.33;;;;;;;;;;5052688;28;20206;-84
2021/10/09 04:31:07;;;;;;;2.03;1.80;;;;;;;;;;5052927;28;20228;-84
2021/10/09 04:33:34;;;;;;;1.10;1.00;;;;;;;;;;5052844;28;20324;-84
2021/10/09 04:36:01;;;;;;;3.07;1.13;;;;;;;;;;5052978;28;20597;-85
2021/10/09 04:38:29;;;;;;;1.30;1.20;;;;;;;;;;5052940;28;20575;-85
2021/10/09 04:40:56;;;;;;;3.80;3.23;;;;;;;;;;5052950;28;20246;-85
2021/10/09 04:43:23;;;;;;;2.33;2.13;;;;;;;;;;5052689;28;20289;-85
2021/10/09 04:45:51;;;;;;;2.83;2.60;;;;;;;;;;5050364;28;20298;-85
2021/10/09 04:48:19;;;;;;;2.73;2.17;;;;;;;;;;5043448;28;20240;-85
2021/10/09 04:50:46;;;;;;;0.60;0.60;;;;;;;;;;5052548;28;20194;-85
2021/10/09 04:53:13;;;;;;;0.90;0.90;;;;;;;;;;5052258;28;20744;-85
2021/10/09 04:55:40;;;;;;;0.90;0.90;;;;;;;;;;5052550;28;20194;-86
2021/10/09 04:58:07;;;;;;;0.80;0.80;;;;;;;;;;5052415;28;20255;-85
2021/10/09 05:00:35;;;;;;;4.37;3.97;;;;;;;;;;5052763;28;20224;-85
2021/10/09 05:03:03;;;;;;;0.90;0.90;;;;;;;;;;5052330;28;20198;-85
2021/10/09 05:05:31;;;;;;;1.10;1.00;;;;;;;;;;5052727;28;20560;-86
2021/10/09 05:07:58;;;;;;;2.30;2.10;;;;;;;;;;5052548;28;20694;-86
2021/10/09 05:10:28;;;;;;;2.00;1.80;;;;;;;;;;5052682;28;20204;-86
2021/10/09 05:12:55;;;;;;;1.00;1.00;;;;;;;;;;5051268;28;20285;-86
2021/10/09 05:15:22;;;;;;;1.07;1.07;;;;;;;;;;5052619;28;20305;-86
2021/10/09 05:17:49;;;;;;;1.90;1.80;;;;;;;;;;5051754;28;20205;-85
2021/10/09 05:20:18;;;;;;;2.40;1.67;;;;;;;;;;5051776;28;20256;-86
2021/10/09 05:22:47;;;;;;;1.40;1.30;;;;;;;;;;5046393;28;20203;-86
2021/10/09 05:25:14;;;;;;;0.83;0.83;;;;;;;;;;5032208;28;20207;-86
2021/10/09 05:27:50;;;;;;;2.30;1.00;;;;;;;;;;5046233;28;20750;-85
2021/10/09 05:30:17;;;;;;;0.80;0.80;;;;;;;;;;5045418;28;20201;-86
2021/10/09 05:32:58;;;;;;;0.50;0.50;;;;;;;;;;5034335;28;20586;-86
2021/10/09 05:35:27;;;;;;;0.70;0.70;;;;;;;;;;5049013;28;20206;-84
2021/10/09 05:37:54;;;;;;;0.50;0.50;;;;;;;;;;5050170;28;20611;-86
2021/10/09 05:40:22;;;;;;;2.13;1.97;;;;;;;;;;5037853;28;20300;-87
2021/10/09 05:42:49;;;;;;;1.00;0.93;;;;;;;;;;5036631;28;20821;-85
2021/10/09 05:45:16;;;;;;;0.60;0.60;;;;;;;;;;5037095;28;20252;-85
2021/10/09 05:47:44;;;;;;;0.73;0.73;;;;;;;;;;5041158;28;20775;-85
2021/10/09 05:50:12;;;;;;;0.60;0.60;;;;;;;;;;5038438;28;20206;-83
2021/10/09 05:52:46;;;;;;;0.60;0.60;;;;;;;;;;5041811;28;20245;-83
2021/10/09 05:55:17;;;;;;;4.10;3.80;;;;;;;;;;5039996;28;20198;-83
2021/10/09 05:57:54;;;;;;;1.43;1.30;;;;;;;;;;5040931;28;20659;-83
2021/10/09 06:44:56;;;;;;;0.13;0.13;;;;;;;;;;4993645;28;20513;-84
2021/10/09 06:47:26;;;;;;;0.30;0.30;;;;;;;;;;4993733;28;20209;-84
2021/10/09 07:00:55;;;;;;;2.03;1.93;;;;;;;;;;5040969;28;20264;-83
2021/10/09 07:03:22;;;;;;;5.03;4.53;;;;;;;;;;5042158;28;20202;-82
2021/10/09 07:05:49;;;;;;;2.13;1.57;;;;;;;;;;5048290;28;20206;-83
2021/10/09 07:08:17;;;;;;;4.70;4.00;;;;;;;;;;5040205;28;20706;-84
2021/10/09 07:10:46;;;;;;;4.20;2.50;;;;;;;;;;5045760;28;20248;-83
2021/10/09 07:13:15;;;;;;;2.20;2.00;;;;;;;;;;5054283;28;20201;-83
2021/10/09 07:15:52;;;;;;;1.20;1.10;;;;;;;;;;5052348;28;20213;-84
2021/10/09 07:18:19;;;;;;;0.50;0.50;;;;;;;;;;5053100;28;20198;-85
2021/10/09 07:20:46;;;;;;;0.53;0.53;;;;;;;;;;5054440;28;20194;-84
2021/10/09 07:23:13;;;;;;;1.57;1.47;;;;;;;;;;5036750;28;20709;-84
2021/10/09 07:25:41;;;;;;;0.90;0.90;;;;;;;;;;5040796;28;20383;-82
2021/10/09 07:28:08;;;;;;;0.50;0.50;;;;;;;;;;5034215;28;20222;-83
2021/10/09 07:30:37;;;;;;;0.40;0.40;;;;;;;;;;5047988;28;20205;-83
2021/10/09 07:33:04;;;;;;;0.60;0.60;;;;;;;;;;5054052;28;20240;-84
2021/10/09 07:35:31;;;;;;;0.80;0.80;;;;;;;;;;5053896;28;20201;-84
2021/10/09 07:37:59;;;;;;;0.80;0.80;;;;;;;;;;5053072;28;20233;-85
2021/10/09 07:40:26;;;;;;;1.43;1.20;;;;;;;;;;5053896;28;20198;-85
2021/10/09 07:42:53;;;;;;;0.77;0.77;;;;;;;;;;5054170;28;20248;-84
2021/10/09 07:45:20;;;;;;;0.63;0.60;;;;;;;;;;5052950;28;20224;-85
2021/10/09 07:47:49;;;;;;;0.50;0.47;;;;;;;;;;5053560;28;20226;-85
2021/10/09 07:50:16;;;;;;;1.20;1.13;;;;;;;;;;5044809;28;20249;-83
2021/10/09 07:52:43;;;;;;;1.00;1.00;;;;;;;;;;5033691;28;20238;-83
2021/10/09 07:55:11;;;;;;;5.27;4.77;;;;;;;;;;5033935;28;20203;-82
2021/10/09 07:57:38;;;;;;;1.30;1.20;;;;;;;;;;5033721;28;20201;-83
2021/10/09 08:00:07;;;;;;;1.13;1.10;;;;;;;;;;5034125;28;20281;-82
2021/10/09 08:02:35;;;;;;;1.97;1.80;;;;;;;;;;5033324;28;20234;-83
2021/10/09 08:05:05;;;;;;;1.63;1.10;;;;;;;;;;5033372;28;20257;-82
2021/10/09 08:07:33;;;;;;;1.17;1.07;;;;;;;;;;5033715;28;20223;-82
2021/10/09 08:10:00;;;;;;;1.10;1.00;;;;;;;;;;5038355;28;20246;-82
2021/10/09 08:12:27;;;;;;;1.00;1.00;;;;;;;;;;5053102;28;20205;-82
2021/10/09 08:14:54;;;;;;;1.80;1.40;;;;;;;;;;5053038;28;20198;-83
2021/10/09 08:17:21;;;;;;;1.37;1.27;;;;;;;;;;5052939;28;20202;-83
2021/10/09 08:19:48;;;;;;;1.57;1.30;;;;;;;;;;5053387;28;20563;-83
2021/10/09 08:22:19;;;;;;;0.60;0.60;;;;;;;;;;5051675;28;20197;-83
2021/10/09 08:24:51;;;;;;;1.00;1.00;;;;;;;;;;5033420;28;20730;-83
2021/10/09 08:35:48;;;;;;;2.93;2.73;;;;;;;;;;5033225;28;20708;-84
2021/10/09 08:41:02;;;;;;;2.63;2.10;;;;;;;;;;5033290;28;20194;-84
2021/10/09 08:43:29;;;;;;;1.40;1.30;;;;;;;;;;5032902;28;20207;-84
2021/10/09 08:45:56;;;;;;;1.07;0.90;;;;;;;;;;5033247;28;20209;-83
2021/10/09 08:48:27;;;;;;;4.60;4.20;;;;;;;;;;5032892;28;20258;-84
2021/10/09 08:50:56;;;;;;;6.70;6.13;;;;;;;;;;5032710;28;20194;-84
2021/10/09 08:53:35;;;;;;;2.70;2.50;;;;;;;;;;5032327;28;20325;-83
2021/10/09 08:56:02;;;;;;;0.97;0.97;;;;;;;;;;5032993;28;20197;-84
2021/10/09 08:58:31;;;;;;;0.80;0.80;;;;;;;;;;5032754;28;20248;-86
2021/10/09 09:01:07;;;;;;;0.67;0.67;;;;;;;;;;5032570;28;20198;-85
2021/10/09 09:04:08;;;;;;;0.90;0.90;;;;;;;;;;5032756;28;20186;-86
2021/10/09 09:26:19;;;;;;;6.73;5.63;;;;;;;;;;5032305;28;20577;-83
2021/10/09 09:31:50;;;;;;;3.83;3.53;;;;;;;;;;5006809;28;20205;-84
2021/10/09 09:39:45;;;;;;;1.20;1.10;;;;;;;;;;5031976;28;20221;-83
2021/10/09 09:42:24;;;;;;;3.20;3.00;;;;;;;;;;5032057;28;20199;-84
2021/10/09 09:44:55;;;;;;;0.90;0.90;;;;;;;;;;5032435;28;20195;-84
2021/10/09 09:47:35;;;;;;;3.27;2.97;;;;;;;;;;5031802;28;20742;-84
2021/10/09 09:50:03;;;;;;;1.03;1.03;;;;;;;;;;5048859;28;20198;-84
2021/10/09 09:52:32;;;;;;;0.97;0.50;;;;;;;;;;5051807;28;20260;-84
2021/10/09 09:55:00;;;;;;;1.30;1.20;;;;;;;;;;5052042;28;20209;-83
2021/10/09 09:57:30;;;;;;;4.30;4.00;;;;;;;;;;5051727;28;20208;-84
2021/10/09 09:59:57;;;;;;;3.43;3.13;;;;;;;;;;5051670;28;20292;-84
2021/10/09 10:02:26;;;;;;;2.93;2.73;;;;;;;;;;5051629;28;20757;-83
2021/10/09 10:04:54;;;;;;;2.53;1.93;;;;;;;;;;5051607;28;20685;-83
2021/10/09 10:07:21;;;;;;;1.83;1.73;;;;;;;;;;5051608;28;20205;-83
2021/10/09 10:09:49;;;;;;;3.23;2.93;;;;;;;;;;5051706;28;20194;-84
2021/10/09 10:12:17;;;;;;;1.70;1.60;;;;;;;;;;5051637;28;20293;-83
2021/10/09 10:14:48;;;;;;;1.63;1.53;;;;;;;;;;5051604;28;20204;-84
2021/10/09 10:17:15;;;;;;;1.47;1.07;;;;;;;;;;5053500;28;20281;-83
2021/10/09 10:20:00;;;;;;;1.30;1.20;;;;;;;;;;5055245;28;20226;-83
2021/10/09 10:22:56;;;;;;;2.97;2.00;;;;;;;;;;5054800;28;20291;-86
2021/10/09 10:25:37;;;;;;;5.53;4.50;;;;;;;;;;5048205;28;20206;-84
2021/10/09 10:28:07;;;;;;;3.53;3.33;;;;;;;;;;5055222;28;20206;-83
2021/10/09 10:30:38;;;;;;;6.03;3.13;;;;;;;;;;5055223;28;20252;-84
2021/10/09 10:33:40;;;;;;;4.83;3.93;;;;;;;;;;5055553;28;20573;-82
2021/10/09 10:36:08;;;;;;;3.93;1.50;;;;;;;;;;5055278;28;20665;-83
2021/10/09 10:38:50;;;;;;;2.87;2.37;;;;;;;;;;5055061;28;20190;-83
2021/10/09 10:41:20;;;;;;;2.30;2.10;;;;;;;;;;5055050;28;20293;-83
2021/10/09 10:43:50;;;;;;;2.20;1.50;;;;;;;;;;5050716;28;20692;-83
2021/10/09 10:46:42;;;;;;;2.63;1.87;;;;;;;;;;5041273;28;20198;-84
2021/10/09 10:49:14;;;;;;;2.50;2.23;;;;;;;;;;5042950;28;20308;-83
2021/10/09 10:51:46;;;;;;;1.97;1.87;;;;;;;;;;5054929;28;20194;-83
2021/10/09 10:57:23;;;;;;;1.63;1.40;;;;;;;;;;5049034;28;20573;-83
2021/10/09 10:59:59;;;;;;;1.70;1.60;;;;;;;;;;5054456;28;20192;-83
2021/10/09 11:02:30;;;;;;;2.60;2.07;;;;;;;;;;5051569;28;20205;-83
2021/10/09 11:04:59;;;;;;;8.60;6.37;;;;;;;;;;5054666;28;20638;-84
2021/10/09 11:07:29;;;;;;;4.13;2.00;;;;;;;;;;5035063;28;20194;-83
2021/10/09 11:10:01;;;;;;;3.27;2.97;;;;;;;;;;5034481;28;20232;-84
2021/10/09 11:12:30;;;;;;;1.93;1.80;;;;;;;;;;5034708;28;20226;-83
2021/10/09 11:15:22;;;;;;;3.30;1.60;;;;;;;;;;5034497;28;20187;-83
2021/10/09 11:17:58;;;;;;;2.60;2.27;;;;;;;;;;5032696;28;20202;-84
2021/10/09 11:20:27;;;;;;;1.60;1.50;;;;;;;;;;5034235;28;20186;-83
2021/10/09 11:22:56;;;;;;;1.77;1.67;;;;;;;;;;5034732;28;20585;-84
2021/10/09 11:25:25;;;;;;;1.63;1.40;;;;;;;;;;5034328;28;20297;-84
2021/10/09 11:27:53;;;;;;;3.90;3.30;;;;;;;;;;5034237;28;20234;-83
2021/10/09 11:30:21;;;;;;;3.10;2.80;;;;;;;;;;5034156;28;20663;-84
2021/10/09 11:32:48;;;;;;;1.10;1.10;;;;;;;;;;5034594;28;20209;-83
2021/10/09 11:35:18;;;;;;;2.80;2.60;;;;;;;;;;5034021;28;20667;-84
2021/10/09 11:37:48;;;;;;;2.13;1.93;;;;;;;;;;5034277;28;20194;-84
2021/10/09 11:40:15;;;;;;;3.93;3.63;;;;;;;;;;5034058;28;20256;-84
2021/10/09 11:42:52;;;;;;;4.10;3.33;;;;;;;;;;5034417;28;20289;-84
2021/10/09 11:45:26;;;;;;;1.97;1.87;;;;;;;;;;5033675;28;20190;-84
2021/10/09 11:53:45;;;;;;;4.20;2.50;;;;;;;;;;5034026;28;20226;-84
2021/10/09 11:56:14;;;;;;;4.30;2.37;;;;;;;;;;5033710;28;20197;-84
2021/10/09 11:58:48;;;;;;;1.50;1.40;;;;;;;;;;5033802;28;20195;-84
2021/10/09 12:01:30;;;;;;;3.33;3.03;;;;;;;;;;5033952;28;20202;-84
2021/10/09 12:04:12;;;;;;;1.83;1.70;;;;;;;;;;5033698;28;20206;-83
2021/10/09 12:06:46;;;;;;;2.33;2.13;;;;;;;;;;5033676;28;20270;-84
2021/10/09 12:09:15;;;;;;;2.47;2.10;;;;;;;;;;5033362;28;20205;-84
2021/10/09 12:11:42;;;;;;;7.70;5.63;;;;;;;;;;5033535;28;20749;-84
2021/10/09 12:14:11;;;;;;;13.37;9.53;;;;;;;;;;5033355;28;20683;-83
2021/10/09 12:16:39;;;;;;;3.20;2.43;;;;;;;;;;5033259;28;20230;-84
2021/10/09 12:19:08;;;;;;;3.00;2.80;;;;;;;;;;5033384;28;20198;-84
2021/10/09 12:21:37;;;;;;;3.53;2.50;;;;;;;;;;5033535;28;20217;-83
2021/10/09 12:24:17;;;;;;;3.10;1.60;;;;;;;;;;5037280;28;20208;-84
2021/10/09 12:26:59;;;;;;;3.60;3.27;;;;;;;;;;5043449;28;20198;-84
2021/10/09 12:29:27;;;;;;;2.57;2.33;;;;;;;;;;5033195;28;20261;-84
2021/10/09 12:31:55;;;;;;;1.43;1.33;;;;;;;;;;5033327;28;20687;-83
2021/10/09 12:34:27;;;;;;;2.00;1.80;;;;;;;;;;5032872;28;20199;-84
2021/10/09 12:37:10;;;;;;;102.83;63.60;;;;;;;;;;5033340;28;20202;-84
2021/10/09 12:39:39;;;;;;;16.37;11.87;;;;;;;;;;5030767;28;20560;-84
2021/10/09 12:42:06;;;;;;;14.67;12.67;;;;;;;;;;5032949;28;20199;-84
2021/10/09 12:44:33;;;;;;;8.53;7.63;;;;;;;;;;5032845;28;20265;-83
2021/10/09 12:47:00;;;;;;;31.10;24.67;;;;;;;;;;5033102;28;20642;-84
2021/10/09 12:49:27;;;;;;;8.40;6.47;;;;;;;;;;5032605;28;20736;-84
2021/10/09 12:51:55;;;;;;;10.60;9.20;;;;;;;;;;5032561;28;20582;-84
2021/10/09 12:54:24;;;;;;;11.30;9.07;;;;;;;;;;5038134;28;20574;-83
2021/10/09 12:56:53;;;;;;;6.33;4.83;;;;;;;;;;5039439;28;20740;-83
2021/10/09 12:59:20;;;;;;;3.93;3.53;;;;;;;;;;5040945;28;20203;-84
2021/10/09 13:01:47;;;;;;;5.70;5.20;;;;;;;;;;5049186;28;20198;-84
2021/10/09 13:04:14;;;;;;;2.57;2.37;;;;;;;;;;5052595;28;20745;-85
2021/10/09 13:06:41;;;;;;;3.47;3.17;;;;;;;;;;5052528;28;20202;-84
2021/10/09 13:09:08;;;;;;;8.37;7.23;;;;;;;;;;5052079;28;20309;-85
2021/10/09 13:11:44;;;;;;;7.10;6.50;;;;;;;;;;5052093;28;20296;-85
2021/10/09 13:14:13;;;;;;;7.97;7.33;;;;;;;;;;5052227;28;20276;-80
2021/10/09 13:16:40;;;;;;;5.93;4.10;;;;;;;;;;5052075;28;20208;-81
2021/10/09 13:19:07;;;;;;;9.20;5.73;;;;;;;;;;5051920;28;20228;-81
2021/10/09 13:21:34;;;;;;;4.13;3.73;;;;;;;;;;5051712;28;20202;-81
2021/10/09 13:24:02;;;;;;;2.70;2.47;;;;;;;;;;5051817;28;20194;-81
2021/10/09 13:26:31;;;;;;;4.10;3.70;;;;;;;;;;5052255;28;20697;-83
2021/10/09 13:28:58;;;;;;;4.80;4.30;;;;;;;;;;5051302;28;20649;-81
2021/10/09 13:31:27;;;;;;;5.00;3.00;;;;;;;;;;5052125;28;20221;-84
2021/10/09 13:33:57;;;;;;;3.17;2.93;;;;;;;;;;5051508;28;20194;-81
2021/10/09 13:36:26;;;;;;;1.73;1.60;;;;;;;;;;5051142;28;20271;-81
2021/10/09 13:38:55;;;;;;;2.50;2.30;;;;;;;;;;5051170;28;20194;-81
2021/10/09 13:41:23;;;;;;;2.10;1.90;;;;;;;;;;5042931;28;20213;-82
2021/10/09 13:43:50;;;;;;;6.97;5.87;;;;;;;;;;5031567;28;20199;-81
2021/10/09 13:46:19;;;;;;;2.57;2.10;;;;;;;;;;5031707;28;20693;-81
2021/10/09 13:48:51;;;;;;;3.37;3.07;;;;;;;;;;5031408;28;20255;-81
2021/10/09 13:51:18;;;;;;;2.63;2.43;;;;;;;;;;5043407;28;20210;-81
2021/10/09 13:53:45;;;;;;;7.60;7.00;;;;;;;;;;5057236;28;20744;-81
2021/10/09 13:56:13;;;;;;;5.73;5.13;;;;;;;;;;5058013;28;20197;-81
2021/10/09 13:58:40;;;;;;;2.23;2.13;;;;;;;;;;5057966;28;20288;-82
2021/10/09 14:01:08;;;;;;;3.50;3.20;;;;;;;;;;5057771;28;20201;-81
2021/10/09 14:03:37;;;;;;;3.80;2.33;;;;;;;;;;5058557;28;20289;-82
2021/10/09 14:06:05;;;;;;;9.30;8.30;;;;;;;;;;5050240;28;20206;-82
2021/10/09 14:08:33;;;;;;;7.33;6.73;;;;;;;;;;5037767;28;20195;-82
2021/10/09 14:11:01;;;;;;;5.87;5.40;;;;;;;;;;5038201;28;20198;-83
2021/10/09 14:13:29;;;;;;;5.27;4.87;;;;;;;;;;5038126;28;20198;-83
2021/10/09 14:15:56;;;;;;;4.37;3.97;;;;;;;;;;5038262;28;20252;-83
2021/10/09 14:18:23;;;;;;;3.27;2.97;;;;;;;;;;5037572;28;20241;-83
2021/10/09 14:20:52;;;;;;;5.03;4.43;;;;;;;;;;5038016;28;20198;-83
2021/10/09 14:23:21;;;;;;;5.67;4.30;;;;;;;;;;5037856;28;20237;-83
2021/10/09 14:25:49;;;;;;;6.10;5.40;;;;;;;;;;5041342;28;20310;-83
2021/10/09 14:28:17;;;;;;;4.10;3.70;;;;;;;;;;5057750;28;20194;-82
2021/10/09 14:30:46;;;;;;;7.33;4.83;;;;;;;;;;5057938;28;20240;-83
2021/10/09 14:33:13;;;;;;;4.00;3.53;;;;;;;;;;5057826;28;20248;-83
2021/10/09 14:35:48;;;;;;;4.70;4.17;;;;;;;;;;5055420;28;20195;-82
2021/10/09 14:42:03;;;;;;;8.80;6.53;;;;;;;;;;4910404;29;20298;-83
2021/10/09 15:18:26;;;;;;;1.77;1.67;;;;;;;;;;5034119;28;20625;-83
2021/10/09 15:20:58;;;;;;;8.80;6.93;;;;;;;;;;5034574;28;20206;-83
2021/10/09 15:23:28;;;;;;;5.67;4.80;;;;;;;;;;5042560;28;20252;-82
2021/10/09 15:46:18;;;;;;;7.93;7.17;;;;;;;;;;5130051;27;20570;-84
2021/10/09 15:48:45;;;;;;;5.63;5.17;;;;;;;;;;5130208;28;20241;-83
2021/10/09 15:51:13;;;;;;;4.37;3.97;;;;;;;;;;5129928;27;20208;-84
2021/10/09 15:53:40;;;;;;;2.40;2.20;;;;;;;;;;5129273;27;20706;-83
2021/10/09 15:56:07;;;;;;;1.90;1.80;;;;;;;;;;5130088;28;20199;-84
2021/10/09 15:58:34;;;;;;;3.40;3.20;;;;;;;;;;5129502;28;20711;-83
2021/10/09 16:01:01;;;;;;;3.33;3.10;;;;;;;;;;5129751;27;20203;-83
2021/10/09 16:03:30;;;;;;;2.43;2.30;;;;;;;;;;5129870;28;20203;-84
2021/10/09 16:05:57;;;;;;;3.27;2.97;;;;;;;;;;5130004;28;20199;-84
2021/10/09 16:08:24;;;;;;;8.40;7.13;;;;;;;;;;5129167;28;20709;-84
2021/10/09 16:10:52;;;;;;;9.87;8.90;;;;;;;;;;5129777;28;20581;-83
2021/10/09 16:13:22;;;;;;;7.17;6.47;;;;;;;;;;5125516;27;20199;-84
2021/10/09 16:15:49;;;;;;;4.90;4.47;;;;;;;;;;5129503;28;20254;-84
2021/10/09 16:18:16;;;;;;;5.67;5.17;;;;;;;;;;5129096;27;20191;-83
2021/10/09 16:20:45;;;;;;;6.47;5.87;;;;;;;;;;5129554;27;20218;-83
2021/10/09 16:23:12;;;;;;;27.70;24.73;;;;;;;;;;5129276;27;20192;-84
2021/10/09 16:25:39;;;;;;;11.90;10.77;;;;;;;;;;5129307;27;20195;-83
2021/10/09 16:28:06;;;;;;;6.97;6.37;;;;;;;;;;5129459;27;20199;-83
2021/10/09 16:30:34;;;;;;;10.53;9.37;;;;;;;;;;5125763;27;20199;-83
2021/10/09 16:33:01;;;;;;;6.50;5.90;;;;;;;;;;5128846;27;20581;-83
2021/10/09 16:35:29;;;;;;;5.37;4.87;;;;;;;;;;5128771;27;20219;-83
2021/10/09 16:37:57;;;;;;;6.60;6.00;;;;;;;;;;5129095;27;20191;-83
2021/10/09 16:40:25;;;;;;;5.70;5.10;;;;;;;;;;5128885;27;20198;-83
2021/10/09 16:42:52;;;;;;;5.10;4.20;;;;;;;;;;5129093;27;20206;-83
2021/10/09 16:45:19;;;;;;;7.13;6.50;;;;;;;;;;5125994;27;20227;-83
2021/10/09 16:47:46;;;;;;;4.33;4.03;;;;;;;;;;5115028;28;20672;-83
2021/10/09 16:50:13;;;;;;;3.40;3.03;;;;;;;;;;5114907;28;20675;-84
2021/10/09 16:52:40;;;;;;;8.80;7.97;;;;;;;;;;5115222;28;20203;-83
2021/10/09 16:55:10;;;;;;;7.10;6.40;;;;;;;;;;5114862;28;20662;-83
2021/10/09 16:57:37;;;;;;;4.37;4.07;;;;;;;;;;5115020;28;20195;-83
2021/10/09 17:00:05;;;;;;;3.97;2.63;;;;;;;;;;5114795;28;20200;-84
2021/10/09 17:02:32;;;;;;;4.33;3.73;;;;;;;;;;5115245;28;20632;-84
2021/10/09 17:05:00;;;;;;;3.53;3.23;;;;;;;;;;5114496;27;20230;-83
2021/10/09 17:07:28;;;;;;;3.57;3.27;;;;;;;;;;5114861;28;20205;-83
2021/10/09 17:09:55;;;;;;;5.97;4.43;;;;;;;;;;5114623;28;20648;-83
2021/10/09 17:12:24;;;;;;;6.30;5.60;;;;;;;;;;5103404;28;20301;-84
2021/10/09 17:14:51;;;;;;;5.60;4.10;;;;;;;;;;5094036;28;20220;-84
2021/10/09 17:17:19;;;;;;;29.20;26.03;;;;;;;;;;5095958;28;20196;-84
2021/10/09 17:19:46;;;;;;;7.30;6.53;;;;;;;;;;5114471;28;20202;-84
2021/10/09 17:22:13;;;;;;;3.63;3.33;;;;;;;;;;5114458;28;20286;-84
2021/10/09 17:24:40;;;;;;;3.20;2.90;;;;;;;;;;5114282;28;20664;-84
2021/10/09 17:27:08;;;;;;;5.77;5.30;;;;;;;;;;5105557;28;20689;-83
2021/10/09 17:29:37;;;;;;;7.90;5.77;;;;;;;;;;5093813;28;20192;-85
2021/10/09 17:32:05;;;;;;;5.87;5.27;;;;;;;;;;5094426;28;20189;-84
2021/10/09 17:34:33;;;;;;;3.00;2.80;;;;;;;;;;5093791;28;20589;-83
2021/10/09 17:37:00;;;;;;;1.80;1.70;;;;;;;;;;5093746;28;20282;-84
2021/10/09 17:39:27;;;;;;;2.13;1.80;;;;;;;;;;5093748;28;20283;-84
2021/10/09 17:41:54;;;;;;;4.60;4.20;;;;;;;;;;5093824;28;20200;-84
2021/10/09 17:44:22;;;;;;;7.73;7.03;;;;;;;;;;5093433;28;20224;-84
2021/10/09 17:46:52;;;;;;;3.13;2.93;;;;;;;;;;5093474;28;20188;-84